Burr Oak, Michigan
Current Conditions -  °F | °C
As of 3:34 AM on Friday 21 Nov 2014 (Local Time) from KIRS Reporting Station
Light Snow Light Snow  
Wind Chill: -7°   Ceiling: 4400
Heat Index: -7°   Visibility: 10mi
Dew Point: -9°   Wind: 3mph
Humidity: 86%   Direction: 290°WNW
Pressure: 30.3"   Gusts: NA
Location:  41.85°N, 85.32°W
Report Text: KIRS 210834Z AUTO 29003KT 10SM -SN OVC044 M07/M09 A3030 RMK AO2
Loading
Personal Weather Stations






























Interactive Weather Map New forecast layout! Learn more

10-Day Weather Forecast

Advertisements
Track Severe Weather on mobile